CheckWX is a tool to help pilots better visualize weather data.  It is not intended as a substitute for an official pre-flight weather briefing.

15:14:32 UTC

KTIF METAR
Thomas County Airport
Thedford, Nebraska, USA
Current

20 mins ago

KTIF 261455Z AUTO 14010KT 10SM BKN060 BKN095 OVC120 18/13 A3010 RMK AO2 T01760130
Observed
May-26 @ 14:55 UTC
Wind
  • 140° at 10 KTS
Visibility
10 SM
Flight Rules
VFR
Cloud Levels
  • Broken at 6,000' AGL
  • Broken at 9,500' AGL
  • Overcast at 12,000' AGL
Temperature
18°C / 64°F
Dewpoint
13°C / 55°F
Humidity
73%
Altimeter
30.1" Hg
Pressure
1019.32 hPa
Previous

40 mins ago

KTIF 261435Z AUTO 14008KT 10SM -RA SCT060 BKN095 BKN120 17/13 A3009 RMK AO2 T01660126
Observed
May-26 @ 14:35 UTC
Wind
  • 140° at 8 KTS
Visibility
10 SM
Flight Rules
VFR
Conditions
Light Rain
Cloud Levels
  • Scattered at 6,000' AGL
  • Broken at 9,500' AGL
  • Broken at 12,000' AGL
Temperature
17°C / 63°F
Dewpoint
13°C / 55°F
Humidity
77%
Altimeter
30.09" Hg
Pressure
1018.92 hPa
Previous

60 mins ago

KTIF 261415Z AUTO 15004KT 10SM VCTS BKN050 17/13 A3009 RMK AO2 LTG DSNT NW T01670126
Observed
May-26 @ 14:15 UTC
Wind
  • 150° at 4 KTS
Visibility
10 SM
Flight Rules
VFR
Conditions
Area Thunderstorm
Cloud Levels
  • Broken at 5,000' AGL
Temperature
17°C / 63°F
Dewpoint
13°C / 55°F
Humidity
77%
Altimeter
30.09" Hg
Pressure
1018.92 hPa